Eviapetrol II — SY6858 — position and weather

sailwx.info

Track history (hours):
 
Tides and Currents Weather Stations Pressure Air Temp Water Temp Dewpoint Dewpoint Depression Visibility Wind Speed Wind Dir Waves Ship Positions

Eviapetrol II

Last reported at 2016-Apr-29 13:28 UTC. Time now 2016-Apr-30 17:00 UTC.
Position N 37°37' E 024°05'.

Length 78 m; draft 4.3 m.

Type: Tanker. MMSI: 240493000.

Date/timePositionNaut miles runAvg speedWind from/ knotsBaromVisibWave heightAir tempDewpointWater temp
2016-Apr-29 13:28N 37°37' E 024°05'910.1
2016-Apr-29 12:33N 37°38' E 023°53'1010.1
2016-Apr-29 11:33N 37°41' E 023°42'1110.6
2016-Apr-29 10:33N 37°51' E 023°36'9 9.3
2016-Apr-29 09:33N 38°00' E 023°33'3 2.5
2016-Apr-29 08:33N 38°02' E 023°36'0 0.0
2016-Apr-29 06:11N 38°02' E 023°36'0 0.0
2016-Apr-29 01:19N 38°02' E 023°36'0 0.0
2016-Apr-29 00:25N 38°02' E 023°36'0 0.1
2016-Apr-28 16:08N 38°01' E 023°36'2 3.5
2016-Apr-28 15:33N 38°01' E 023°33'1 0.5
2016-Apr-28 14:34N 38°01' E 023°32'1 0.8
2016-Apr-28 13:32N 38°02' E 023°32'0 0.0
2016-Apr-28 11:33N 38°02' E 023°32'0 0.0
2016-Apr-28 09:33N 38°02' E 023°32'0 0.0
2016-Apr-28 08:30N 38°02' E 023°32'0 0.0
2016-Apr-28 07:33N 38°02' E 023°32'3 3.0
2016-Apr-28 06:33N 37°59' E 023°33'10 9.7
2016-Apr-28 05:33N 37°51' E 023°40'1110.8
2016-Apr-28 04:33N 37°41' E 023°45'1110.7
2016-Apr-28 03:33N 37°34' E 023°55'1110.9
2016-Apr-28 02:33N 37°27' E 024°06'1611.4
2016-Apr-28 01:08N 37°17' E 024°22'  
2016-Apr-24 14:03N 37°08' E 023°35'5 9.7
2016-Apr-24 13:33N 37°13' E 023°36'1010.2
2016-Apr-24 12:33N 37°23' E 023°38'1010.0
2016-Apr-24 11:33N 37°33' E 023°39'1010.1
2016-Apr-24 10:33N 37°43' E 023°40'1010.1
2016-Apr-24 09:33N 37°52' E 023°36'9 8.5
2016-Apr-24 08:33N 38°01' E 023°33'1 1.3
2016-Apr-24 07:33N 38°02' E 023°32'2 1.8
2016-Apr-24 06:33N 38°02' E 023°34'1 0.4
2016-Apr-24 03:33N 38°02' E 023°36'0 0.0
2016-Apr-24 02:24N 38°02' E 023°36'0 0.0
2016-Apr-24 01:33N 38°02' E 023°36'0 0.0
2016-Apr-24 00:33N 38°02' E 023°36'0 0.0
2016-Apr-23 23:05N 38°02' E 023°36'0 0.0
2016-Apr-23 22:33N 38°02' E 023°36'0 0.0
2016-Apr-23 21:33N 38°02' E 023°36'0 0.0
2016-Apr-23 20:22N 38°02' E 023°36'0 0.0
2016-Apr-23 19:33N 38°02' E 023°36'0 0.0
2016-Apr-23 18:27N 38°02' E 023°36'0 0.0
2016-Apr-23 17:33N 38°02' E 023°36'4 4.2
2016-Apr-23 16:34N 38°02' E 023°30'0 0.1
2016-Apr-23 15:33N 38°02' E 023°31'0 0.0
2016-Apr-23 14:33N 38°02' E 023°31'0 0.0
2016-Apr-23 13:33N 38°02' E 023°31'0 0.0
2016-Apr-23 12:33N 38°02' E 023°31'0 0.0
2016-Apr-23 11:33N 38°02' E 023°31'0 0.0
2016-Apr-23 10:33N 38°02' E 023°31'0 0.0
2016-Apr-23 09:33N 38°02' E 023°31'0 0.0
2016-Apr-23 08:33N 38°02' E 023°31'2 1.7
2016-Apr-23 07:33N 38°01' E 023°32'9 8.9
2016-Apr-23 06:33N 37°53' E 023°38'1111.2
2016-Apr-23 05:33N 37°43' E 023°44'22 9.7
2016-Apr-23 03:15N 37°42' E 024°12'710.8
2016-Apr-23 02:33N 37°47' E 024°19'1111.4
2016-Apr-23 01:33N 37°54' E 024°31'1110.8
2016-Apr-23 00:33N 38°00' E 024°42'1010.2
2016-Apr-22 23:33N 38°06' E 024°52'1310.6
2016-Apr-22 22:19N 38°14' E 025°06'  
Track history (hours):
 
Tides and Currents Weather Stations Pressure Air Temp Water Temp Dewpoint Dewpoint Depression Visibility Wind Speed Wind Dir Waves Ship Positions

Eviapetrol II

Last reported at 2016-Apr-29 13:28 UTC. Time now 2016-Apr-30 17:00 UTC.
Position N 37°37' E 024°05'.

Length 78 m; draft 4.3 m.

Type: Tanker. MMSI: 240493000.

Date/timePositionNaut miles runAvg speedWind from/ knotsBaromVisibWave heightAir tempDewpointWater temp
2016-Apr-29 13:28N 37°37' E 024°05'910.1
2016-Apr-29 12:33N 37°38' E 023°53'1010.1
2016-Apr-29 11:33N 37°41' E 023°42'1110.6
2016-Apr-29 10:33N 37°51' E 023°36'9 9.3
2016-Apr-29 09:33N 38°00' E 023°33'3 2.5
2016-Apr-29 08:33N 38°02' E 023°36'0 0.0
2016-Apr-29 06:11N 38°02' E 023°36'0 0.0
2016-Apr-29 01:19N 38°02' E 023°36'0 0.0
2016-Apr-29 00:25N 38°02' E 023°36'0 0.1
2016-Apr-28 16:08N 38°01' E 023°36'2 3.5
2016-Apr-28 15:33N 38°01' E 023°33'1 0.5
2016-Apr-28 14:34N 38°01' E 023°32'1 0.8
2016-Apr-28 13:32N 38°02' E 023°32'0 0.0
2016-Apr-28 11:33N 38°02' E 023°32'0 0.0
2016-Apr-28 09:33N 38°02' E 023°32'0 0.0
2016-Apr-28 08:30N 38°02' E 023°32'0 0.0
2016-Apr-28 07:33N 38°02' E 023°32'3 3.0
2016-Apr-28 06:33N 37°59' E 023°33'10 9.7
2016-Apr-28 05:33N 37°51' E 023°40'1110.8
2016-Apr-28 04:33N 37°41' E 023°45'1110.7
2016-Apr-28 03:33N 37°34' E 023°55'1110.9
2016-Apr-28 02:33N 37°27' E 024°06'1611.4
2016-Apr-28 01:08N 37°17' E 024°22'  
2016-Apr-24 14:03N 37°08' E 023°35'5 9.7
2016-Apr-24 13:33N 37°13' E 023°36'1010.2
2016-Apr-24 12:33N 37°23' E 023°38'1010.0
2016-Apr-24 11:33N 37°33' E 023°39'1010.1
2016-Apr-24 10:33N 37°43' E 023°40'1010.1
2016-Apr-24 09:33N 37°52' E 023°36'9 8.5
2016-Apr-24 08:33N 38°01' E 023°33'1 1.3
2016-Apr-24 07:33N 38°02' E 023°32'2 1.8
2016-Apr-24 06:33N 38°02' E 023°34'1 0.4
2016-Apr-24 03:33N 38°02' E 023°36'0 0.0
2016-Apr-24 02:24N 38°02' E 023°36'0 0.0
2016-Apr-24 01:33N 38°02' E 023°36'0 0.0
2016-Apr-24 00:33N 38°02' E 023°36'0 0.0
2016-Apr-23 23:05N 38°02' E 023°36'0 0.0
2016-Apr-23 22:33N 38°02' E 023°36'0 0.0
2016-Apr-23 21:33N 38°02' E 023°36'0 0.0
2016-Apr-23 20:22N 38°02' E 023°36'0 0.0
2016-Apr-23 19:33N 38°02' E 023°36'0 0.0
2016-Apr-23 18:27N 38°02' E 023°36'0 0.0
2016-Apr-23 17:33N 38°02' E 023°36'4 4.2
2016-Apr-23 16:34N 38°02' E 023°30'0 0.1
2016-Apr-23 15:33N 38°02' E 023°31'0 0.0
2016-Apr-23 14:33N 38°02' E 023°31'0 0.0
2016-Apr-23 13:33N 38°02' E 023°31'0 0.0
2016-Apr-23 12:33N 38°02' E 023°31'0 0.0
2016-Apr-23 11:33N 38°02' E 023°31'0 0.0
2016-Apr-23 10:33N 38°02' E 023°31'0 0.0
2016-Apr-23 09:33N 38°02' E 023°31'0 0.0
2016-Apr-23 08:33N 38°02' E 023°31'2 1.7
2016-Apr-23 07:33N 38°01' E 023°32'9 8.9
2016-Apr-23 06:33N 37°53' E 023°38'1111.2
2016-Apr-23 05:33N 37°43' E 023°44'22 9.7
2016-Apr-23 03:15N 37°42' E 024°12'710.8
2016-Apr-23 02:33N 37°47' E 024°19'1111.4
2016-Apr-23 01:33N 37°54' E 024°31'1110.8
2016-Apr-23 00:33N 38°00' E 024°42'1010.2
2016-Apr-22 23:33N 38°06' E 024°52'1310.6
2016-Apr-22 22:19N 38°14' E 025°06'  

Dump ship's entire track history